createdAt,value
2022-09-23T00:03:01.324Z,10.68
2022-09-23T00:08:02.638Z,10.65
2022-09-23T00:13:05.682Z,10.69
2022-09-23T00:18:08.118Z,10.56
2022-09-23T00:23:09.488Z,10.68
2022-09-23T00:28:10.788Z,10.68
2022-09-23T00:33:12.091Z,10.66
2022-09-23T00:38:14.263Z,10.67
2022-09-23T00:43:15.817Z,10.74
2022-09-23T00:48:19.701Z,10.72
2022-09-23T00:53:26.531Z,10.71
2022-09-23T00:58:31.815Z,10.60
2022-09-23T01:03:33.153Z,10.70
2022-09-23T01:08:34.774Z,10.75
2022-09-23T01:13:42.569Z,10.77
2022-09-23T01:18:56.915Z,10.77
2022-09-23T01:24:08.119Z,10.64
2022-09-23T01:29:27.457Z,10.74
2022-09-23T01:34:58.139Z,10.74
2022-09-23T01:40:20.821Z,10.49
2022-09-23T01:45:38.676Z,10.72
2022-09-23T01:50:56.866Z,10.73
2022-09-23T01:56:03.383Z,10.74
2022-09-23T02:01:07.404Z,10.67
2022-09-23T02:06:15.771Z,10.66
2022-09-23T02:11:18.059Z,10.67
2022-09-23T02:16:26.486Z,10.63
2022-09-23T02:21:34.112Z,10.59
2022-09-23T02:26:41.552Z,10.58
2022-09-23T02:32:00.212Z,10.58
2022-09-23T02:38:00.437Z,10.56
2022-09-23T02:43:10.942Z,10.53
2022-09-23T02:48:33.151Z,10.42
2022-09-23T02:53:34.740Z,10.44
2022-09-23T02:58:37.003Z,10.49
2022-09-23T03:04:05.028Z,10.44
2022-09-23T03:09:15.468Z,10.34
2022-09-23T03:14:50.648Z,10.42
2022-09-23T03:20:12.513Z,10.31
2022-09-23T03:25:17.741Z,10.24
2022-09-23T03:30:21.597Z,10.24
2022-09-23T03:35:27.280Z,10.17
2022-09-23T03:40:32.857Z,9.98
2022-09-23T03:45:34.819Z,9.99
2022-09-23T03:50:36.420Z,10.07
2022-09-23T03:55:39.231Z,10.04
2022-09-23T04:00:40.730Z,10.01
2022-09-23T04:05:42.916Z,9.97
2022-09-23T04:10:44.245Z,9.95
2022-09-23T04:15:45.560Z,9.92
2022-09-23T04:20:47.315Z,9.90
2022-09-23T04:25:48.933Z,9.91
2022-09-23T04:30:50.337Z,9.85
2022-09-23T04:35:52.309Z,9.87
2022-09-23T04:40:53.806Z,9.89
2022-09-23T04:46:02.440Z,9.93
2022-09-23T04:51:05.532Z,9.94
2022-09-23T04:56:10.004Z,9.88
2022-09-23T05:01:26.607Z,9.84
2022-09-23T05:06:34.382Z,9.83
2022-09-23T05:11:36.051Z,9.73
2022-09-23T05:16:37.584Z,9.68
2022-09-23T05:21:39.078Z,9.73
2022-09-23T05:26:40.509Z,9.71
2022-09-23T05:31:41.824Z,9.69
2022-09-23T05:36:43.548Z,9.66
2022-09-23T05:41:45.697Z,9.68
2022-09-23T05:46:47.071Z,9.55
2022-09-23T05:51:48.423Z,9.51
2022-09-23T05:56:49.769Z,9.60
2022-09-23T06:01:54.435Z,9.53
2022-09-23T06:07:00.342Z,9.71
2022-09-23T06:12:06.244Z,9.79
2022-09-23T06:17:07.656Z,9.92
2022-09-23T06:22:09.061Z,9.93
2022-09-23T06:27:10.360Z,10.07
2022-09-23T06:32:11.670Z,10.22
2022-09-23T06:37:19.612Z,10.37
2022-09-23T06:42:21.912Z,10.55
2022-09-23T06:47:23.263Z,10.71
2022-09-23T06:52:25.057Z,10.95
2022-09-23T06:57:29.883Z,11.24
2022-09-23T07:02:31.338Z,11.09
2022-09-23T07:07:32.614Z,11.68
2022-09-23T07:12:34.333Z,11.82
2022-09-23T07:17:36.794Z,12.00
2022-09-23T07:22:38.245Z,12.26
2022-09-23T07:27:39.907Z,12.35
2022-09-23T07:32:48.238Z,12.56
2022-09-23T07:37:50.601Z,12.53
2022-09-23T07:42:52.150Z,12.85
2022-09-23T07:47:55.177Z,13.03
2022-09-23T07:52:56.487Z,13.11
2022-09-23T07:57:57.784Z,13.00
2022-09-23T08:02:59.242Z,13.19
2022-09-23T08:08:00.719Z,13.36
2022-09-23T08:13:03.326Z,13.39
2022-09-23T08:18:04.806Z,13.54
2022-09-23T08:23:06.281Z,13.73
2022-09-23T08:28:08.493Z,13.84
2022-09-23T08:33:14.944Z,13.87
2022-09-23T08:38:17.403Z,13.90
2022-09-23T08:43:29.640Z,14.13
2022-09-23T08:48:36.019Z,14.25
2022-09-23T08:53:37.932Z,14.22
2022-09-23T08:59:01.194Z,14.32
2022-09-23T09:04:17.089Z,14.43
2022-09-23T09:09:25.292Z,14.47
2022-09-23T09:14:47.659Z,14.47
2022-09-23T09:19:55.293Z,14.67
2022-09-23T09:25:05.456Z,14.77
2022-09-23T09:30:14.373Z,14.99
2022-09-23T09:35:26.751Z,15.11
2022-09-23T09:40:28.101Z,15.05
2022-09-23T09:45:57.770Z,15.17
2022-09-23T09:51:24.983Z,15.28
2022-09-23T09:56:34.852Z,15.42
2022-09-23T10:01:36.771Z,15.48
2022-09-23T10:06:38.227Z,15.65
2022-09-23T10:11:40.976Z,15.60
2022-09-23T10:16:42.512Z,15.63
2022-09-23T10:21:50.078Z,15.85
2022-09-23T10:26:57.542Z,15.95
2022-09-23T10:32:27.305Z,16.13
2022-09-23T10:37:38.296Z,16.28
2022-09-23T10:43:07.404Z,16.44
2022-09-23T10:48:15.394Z,16.35
2022-09-23T10:53:33.701Z,16.56
2022-09-23T10:59:20.896Z,16.64
2022-09-23T11:04:40.618Z,16.64
2022-09-23T11:09:48.026Z,16.72
2022-09-23T11:15:26.728Z,16.85
2022-09-23T11:20:40.537Z,16.82
2022-09-23T11:25:56.865Z,17.09
2022-09-23T11:31:24.733Z,17.20
2022-09-23T11:36:33.618Z,17.11
2022-09-23T11:41:38.811Z,17.16
2022-09-23T11:46:57.614Z,17.25
2022-09-23T11:52:37.885Z,17.35
2022-09-23T11:57:50.337Z,17.37
2022-09-23T12:03:23.558Z,17.53
2022-09-23T12:08:33.099Z,17.53
2022-09-23T12:14:12.417Z,17.91
2022-09-23T12:19:42.613Z,17.72
2022-09-23T12:24:54.654Z,17.79
2022-09-23T12:30:02.674Z,17.89
2022-09-23T12:35:04.427Z,17.83
2022-09-23T12:40:44.540Z,17.97
2022-09-23T12:45:47.853Z,18.02
2022-09-23T12:50:50.705Z,18.03
2022-09-23T12:55:54.161Z,18.06
2022-09-23T13:01:28.507Z,18.08
2022-09-23T13:06:39.934Z,18.11
2022-09-23T13:11:45.222Z,18.10
2022-09-23T13:16:47.568Z,18.31
2022-09-23T13:21:50.536Z,18.19
2022-09-23T13:27:30.901Z,18.21
2022-09-23T13:32:42.079Z,18.20
2022-09-23T13:37:46.127Z,18.26
2022-09-23T13:42:52.869Z,18.27
2022-09-23T13:48:00.020Z,18.32
2022-09-23T13:53:05.855Z,18.39
2022-09-23T13:58:20.902Z,18.40
2022-09-23T14:03:36.471Z,18.42
2022-09-23T14:08:41.273Z,18.47
2022-09-23T14:13:44.578Z,18.50
2022-09-23T14:18:49.328Z,18.53
2022-09-23T14:23:50.625Z,18.74
2022-09-23T14:28:52.722Z,18.71
2022-09-23T14:33:54.983Z,18.72
2022-09-23T14:39:07.454Z,18.65
2022-09-23T14:44:21.623Z,18.73
2022-09-23T14:49:24.319Z,18.63
2022-09-23T14:54:45.648Z,18.59
2022-09-23T14:59:52.920Z,18.66
2022-09-23T15:05:15.700Z,18.58
2022-09-23T15:10:23.503Z,18.62
2022-09-23T15:15:28.214Z,18.52
2022-09-23T15:20:29.644Z,18.52
2022-09-23T15:25:39.997Z,18.51
2022-09-23T15:30:41.402Z,18.44
2022-09-23T15:35:48.187Z,18.40
2022-09-23T15:40:50.263Z,18.44
2022-09-23T15:45:56.229Z,18.37
2022-09-23T15:51:04.455Z,18.32
2022-09-23T15:56:06.198Z,18.21
2022-09-23T16:01:17.579Z,18.18
2022-09-23T16:06:20.245Z,18.06
2022-09-23T16:11:24.784Z,18.05
2022-09-23T16:16:27.785Z,18.01
2022-09-23T16:21:29.322Z,17.92
2022-09-23T16:26:34.594Z,17.84
2022-09-23T16:31:36.110Z,17.79
2022-09-23T16:36:43.237Z,17.63
2022-09-23T16:41:44.601Z,17.61
2022-09-23T16:46:45.934Z,17.62
2022-09-23T16:51:47.387Z,17.53
2022-09-23T16:56:48.763Z,17.50
2022-09-23T17:02:08.797Z,17.42
2022-09-23T17:07:10.764Z,17.34
2022-09-23T17:12:42.648Z,17.28
2022-09-23T17:17:44.002Z,17.14
2022-09-23T17:22:45.360Z,17.16
2022-09-23T17:27:48.480Z,17.06
2022-09-23T17:32:49.792Z,17.03
2022-09-23T17:37:51.172Z,16.93
2022-09-23T17:42:55.124Z,16.93
2022-09-23T17:47:56.454Z,16.83
2022-09-23T17:53:01.030Z,16.88
2022-09-23T17:58:02.344Z,16.79
2022-09-23T18:03:03.788Z,16.79
2022-09-23T18:08:06.132Z,16.71
2022-09-23T18:13:07.565Z,16.57
2022-09-23T18:18:08.918Z,16.55
2022-09-23T18:23:10.547Z,16.61
2022-09-23T18:28:11.876Z,16.43
2022-09-23T18:33:15.130Z,16.43
2022-09-23T18:38:16.477Z,16.37
2022-09-23T18:43:19.837Z,16.39
2022-09-23T18:48:40.100Z,16.31
2022-09-23T18:53:41.869Z,16.28
2022-09-23T18:58:47.627Z,16.24
2022-09-23T19:03:54.181Z,16.24
2022-09-23T19:08:55.846Z,16.20
2022-09-23T19:14:00.404Z,16.08
2022-09-23T19:19:04.107Z,16.08
2022-09-23T19:24:08.095Z,16.09
2022-09-23T19:29:14.873Z,16.01
2022-09-23T19:34:23.608Z,16.02
2022-09-23T19:39:28.121Z,15.96
2022-09-23T19:44:29.569Z,15.88
2022-09-23T19:49:30.986Z,15.89
2022-09-23T19:54:32.336Z,15.85
2022-09-23T19:59:33.721Z,15.85
2022-09-23T20:04:35.389Z,15.81
2022-09-23T20:09:36.715Z,15.81
2022-09-23T20:14:38.348Z,15.82
2022-09-23T20:19:40.086Z,15.74
2022-09-23T20:24:41.462Z,15.77
2022-09-23T20:29:43.221Z,15.76
2022-09-23T20:34:48.442Z,15.74
2022-09-23T20:39:51.654Z,15.72
2022-09-23T20:44:52.976Z,15.67
2022-09-23T20:49:54.235Z,15.46
2022-09-23T20:54:56.667Z,15.63
2022-09-23T20:59:58.294Z,15.57
2022-09-23T21:05:00.224Z,15.63
2022-09-23T21:10:04.618Z,15.62
2022-09-23T21:15:06.443Z,15.56
2022-09-23T21:20:08.575Z,15.52
2022-09-23T21:25:27.500Z,15.45
2022-09-23T21:30:29.645Z,15.50
2022-09-23T21:35:31.115Z,15.46
2022-09-23T21:40:51.048Z,15.33
2022-09-23T21:45:59.460Z,15.26
2022-09-23T21:51:06.394Z,15.32
2022-09-23T21:56:10.866Z,15.16
2022-09-23T22:01:20.644Z,15.28
2022-09-23T22:06:27.021Z,15.25
2022-09-23T22:11:50.412Z,15.26
2022-09-23T22:16:55.838Z,14.98
2022-09-23T22:21:57.135Z,15.17
2022-09-23T22:26:58.393Z,15.14
2022-09-23T22:32:24.356Z,15.13
2022-09-23T22:37:28.399Z,15.09
2022-09-23T22:42:30.838Z,14.98
2022-09-23T22:47:37.550Z,15.01
2022-09-23T22:52:39.359Z,15.09
2022-09-23T22:57:40.960Z,15.09
2022-09-23T23:02:42.396Z,15.13
2022-09-23T23:07:43.916Z,15.18
2022-09-23T23:12:46.751Z,15.28
2022-09-23T23:17:48.105Z,15.28
2022-09-23T23:22:49.336Z,15.30
2022-09-23T23:27:50.705Z,15.34
2022-09-23T23:32:52.074Z,15.27
2022-09-23T23:37:53.521Z,15.30
2022-09-23T23:42:54.880Z,15.28
2022-09-23T23:47:56.111Z,15.30
2022-09-23T23:52:57.968Z,15.21
2022-09-23T23:58:02.148Z,15.29
